sensor_id;sensor_type;location;lat;lon;timestamp;pressure;altitude;pressure_sealevel;temperature;humidity
68871;BME280;55906;52.278;6.808;2022-10-23T00:01:53;101393.13;;;13.58;84.98
68871;BME280;55906;52.278;6.808;2022-10-23T00:04:22;101393.06;;;13.55;84.94
68871;BME280;55906;52.278;6.808;2022-10-23T00:06:50;101391.25;;;13.53;84.96
68871;BME280;55906;52.278;6.808;2022-10-23T00:09:21;101396.53;;;13.53;84.92
68871;BME280;55906;52.278;6.808;2022-10-23T00:11:49;101397.38;;;13.50;84.97
68871;BME280;55906;52.278;6.808;2022-10-23T00:14:17;101394.66;;;13.47;84.64
68871;BME280;55906;52.278;6.808;2022-10-23T00:16:44;101391.91;;;13.42;85.07
68871;BME280;55906;52.278;6.808;2022-10-23T00:19:11;101398.00;;;13.40;84.93
68871;BME280;55906;52.278;6.808;2022-10-23T00:21:39;101392.72;;;13.40;85.27
68871;BME280;55906;52.278;6.808;2022-10-23T00:24:06;101393.53;;;13.36;84.95
68871;BME280;55906;52.278;6.808;2022-10-23T00:26:33;101405.75;;;13.32;85.06
68871;BME280;55906;52.278;6.808;2022-10-23T00:29:02;101416.28;;;13.29;85.03
68871;BME280;55906;52.278;6.808;2022-10-23T00:31:30;101402.97;;;13.26;84.92
68871;BME280;55906;52.278;6.808;2022-10-23T00:33:57;101412.66;;;13.26;85.03
68871;BME280;55906;52.278;6.808;2022-10-23T00:36:23;101407.25;;;13.21;85.10
68871;BME280;55906;52.278;6.808;2022-10-23T00:38:51;101405.47;;;13.20;85.26
68871;BME280;55906;52.278;6.808;2022-10-23T00:41:21;101411.66;;;13.21;85.01
68871;BME280;55906;52.278;6.808;2022-10-23T00:43:57;101414.25;;;13.19;84.88
68871;BME280;55906;52.278;6.808;2022-10-23T00:46:24;101416.78;;;13.16;84.71
68871;BME280;55906;52.278;6.808;2022-10-23T00:48:51;101419.31;;;13.11;85.07
68871;BME280;55906;52.278;6.808;2022-10-23T00:51:17;101406.09;;;13.10;84.84
68871;BME280;55906;52.278;6.808;2022-10-23T00:53:47;101407.66;;;13.02;85.08
68871;BME280;55906;52.278;6.808;2022-10-23T00:56:16;101399.47;;;12.93;85.52
68871;BME280;55906;52.278;6.808;2022-10-23T00:58:42;101401.09;;;12.88;85.31
68871;BME280;55906;52.278;6.808;2022-10-23T01:01:17;101397.53;;;12.86;85.37
68871;BME280;55906;52.278;6.808;2022-10-23T01:03:44;101389.53;;;12.82;85.47
68871;BME280;55906;52.278;6.808;2022-10-23T01:06:17;101392.16;;;12.82;85.89
68871;BME280;55906;52.278;6.808;2022-10-23T01:08:49;101384.16;;;12.79;85.65
68871;BME280;55906;52.278;6.808;2022-10-23T01:11:25;101377.97;;;12.77;85.73
68871;BME280;55906;52.278;6.808;2022-10-23T01:13:59;101376.06;;;12.72;85.99
68871;BME280;55906;52.278;6.808;2022-10-23T01:16:33;101383.91;;;12.69;85.84
68871;BME280;55906;52.278;6.808;2022-10-23T01:19:08;101391.69;;;12.64;86.15
68871;BME280;55906;52.278;6.808;2022-10-23T01:21:48;101396.00;;;12.61;86.32
68871;BME280;55906;52.278;6.808;2022-10-23T01:24:33;101392.03;;;12.43;86.97
68871;BME280;55906;52.278;6.808;2022-10-23T01:27:25;101397.06;;;12.34;86.95
68871;BME280;55906;52.278;6.808;2022-10-23T01:30:02;101387.25;;;12.29;86.99
68871;BME280;55906;52.278;6.808;2022-10-23T01:32:34;101390.81;;;12.31;87.18
68871;BME280;55906;52.278;6.808;2022-10-23T01:35:06;101385.50;;;12.29;87.58
68871;BME280;55906;52.278;6.808;2022-10-23T01:37:40;101379.50;;;12.35;86.68
68871;BME280;55906;52.278;6.808;2022-10-23T01:40:13;101374.25;;;12.36;86.81
68871;BME280;55906;52.278;6.808;2022-10-23T01:42:45;101368.94;;;12.35;86.53
68871;BME280;55906;52.278;6.808;2022-10-23T01:45:18;101370.56;;;12.30;86.41
68871;BME280;55906;52.278;6.808;2022-10-23T01:47:47;101366.91;;;12.25;87.01
68871;BME280;55906;52.278;6.808;2022-10-23T01:50:16;101365.97;;;12.23;87.43
68871;BME280;55906;52.278;6.808;2022-10-23T01:52:43;101357.13;;;12.21;87.22
68871;BME280;55906;52.278;6.808;2022-10-23T01:55:11;101357.09;;;12.19;87.51
68871;BME280;55906;52.278;6.808;2022-10-23T01:57:39;101357.03;;;12.17;87.21
68871;BME280;55906;52.278;6.808;2022-10-23T02:00:13;101353.56;;;12.18;87.58
68871;BME280;55906;52.278;6.808;2022-10-23T02:02:41;101350.88;;;12.17;87.13
68871;BME280;55906;52.278;6.808;2022-10-23T02:05:12;101343.09;;;12.22;87.60
68871;BME280;55906;52.278;6.808;2022-10-23T02:07:40;101350.88;;;12.17;87.25
68871;BME280;55906;52.278;6.808;2022-10-23T02:10:08;101345.53;;;12.14;87.74
68871;BME280;55906;52.278;6.808;2022-10-23T02:12:41;101354.41;;;12.17;87.28
68871;BME280;55906;52.278;6.808;2022-10-23T02:15:19;101353.47;;;12.15;87.58
68871;BME280;55906;52.278;6.808;2022-10-23T02:17:51;101351.78;;;12.17;87.54
68871;BME280;55906;52.278;6.808;2022-10-23T02:20:27;101341.28;;;12.21;87.65
68871;BME280;55906;52.278;6.808;2022-10-23T02:22:58;101331.63;;;12.21;87.82
68871;BME280;55906;52.278;6.808;2022-10-23T02:25:32;101328.97;;;12.20;87.69
68871;BME280;55906;52.278;6.808;2022-10-23T02:28:05;101336.84;;;12.18;87.70
68871;BME280;55906;52.278;6.808;2022-10-23T02:30:36;101323.53;;;12.13;87.47
68871;BME280;55906;52.278;6.808;2022-10-23T02:33:04;101316.38;;;12.09;87.64
68871;BME280;55906;52.278;6.808;2022-10-23T02:35:32;101308.38;;;12.06;87.90
68871;BME280;55906;52.278;6.808;2022-10-23T02:37:59;101304.03;;;12.08;87.66
68871;BME280;55906;52.278;6.808;2022-10-23T02:40:31;101302.25;;;12.07;87.88
68871;BME280;55906;52.278;6.808;2022-10-23T02:43:03;101299.53;;;12.04;87.95
68871;BME280;55906;52.278;6.808;2022-10-23T02:45:39;101300.41;;;12.03;88.33
68871;BME280;55906;52.278;6.808;2022-10-23T02:48:11;101292.44;;;12.02;88.01
68871;BME280;55906;52.278;6.808;2022-10-23T02:50:45;101285.44;;;12.02;88.19
68871;BME280;55906;52.278;6.808;2022-10-23T02:53:17;101280.19;;;12.04;87.93
68871;BME280;55906;52.278;6.808;2022-10-23T02:55:57;101291.63;;;12.04;88.10
68871;BME280;55906;52.278;6.808;2022-10-23T02:58:30;101289.84;;;12.03;87.84
68871;BME280;55906;52.278;6.808;2022-10-23T03:01:03;101289.88;;;12.05;88.19
68871;BME280;55906;52.278;6.808;2022-10-23T03:03:34;101292.53;;;12.05;88.00
68871;BME280;55906;52.278;6.808;2022-10-23T03:06:03;101302.22;;;12.06;88.39
68871;BME280;55906;52.278;6.808;2022-10-23T03:08:40;101307.94;;;12.23;88.18
68871;BME280;55906;52.278;6.808;2022-10-23T03:11:06;101300.09;;;12.26;88.06
68871;BME280;55906;52.278;6.808;2022-10-23T03:13:33;101302.78;;;12.27;87.84
68871;BME280;55906;52.278;6.808;2022-10-23T03:16:01;101289.63;;;12.29;88.20
68871;BME280;55906;52.278;6.808;2022-10-23T03:18:27;101293.25;;;12.32;87.67
68871;BME280;55906;52.278;6.808;2022-10-23T03:20:55;101286.19;;;12.31;87.59
68871;BME280;55906;52.278;6.808;2022-10-23T03:23:21;101286.19;;;12.31;89.21
68871;BME280;55906;52.278;6.808;2022-10-23T03:25:48;101270.31;;;12.30;87.99
68871;BME280;55906;52.278;6.808;2022-10-23T03:28:15;101280.00;;;12.31;88.34
68871;BME280;55906;52.278;6.808;2022-10-23T03:30:41;101278.22;;;12.30;88.52
68871;BME280;55906;52.278;6.808;2022-10-23T03:33:09;101284.41;;;12.30;88.23
68871;BME280;55906;52.278;6.808;2022-10-23T03:35:36;101291.38;;;12.28;88.27
68871;BME280;55906;52.278;6.808;2022-10-23T03:38:02;101281.72;;;12.29;88.29
68871;BME280;55906;52.278;6.808;2022-10-23T03:40:29;101278.22;;;12.30;88.64
68871;BME280;55906;52.278;6.808;2022-10-23T03:42:56;101269.41;;;12.29;88.33
68871;BME280;55906;52.278;6.808;2022-10-23T03:45:22;101270.31;;;12.30;88.18
68871;BME280;55906;52.278;6.808;2022-10-23T03:47:49;101272.91;;;12.28;88.62
68871;BME280;55906;52.278;6.808;2022-10-23T03:50:18;101276.44;;;12.29;88.43
68871;BME280;55906;52.278;6.808;2022-10-23T03:52:45;101271.97;;;12.26;88.22
68871;BME280;55906;52.278;6.808;2022-10-23T03:55:11;101271.09;;;12.26;88.58
68871;BME280;55906;52.278;6.808;2022-10-23T03:57:38;101269.31;;;12.25;88.60
68871;BME280;55906;52.278;6.808;2022-10-23T04:00:06;101270.19;;;12.25;88.22
68871;BME280;55906;52.278;6.808;2022-10-23T04:02:33;101266.63;;;12.23;88.33
68871;BME280;55906;52.278;6.808;2022-10-23T04:04:59;101262.25;;;12.24;88.30
68871;BME280;55906;52.278;6.808;2022-10-23T04:07:27;101261.38;;;12.25;88.50
68871;BME280;55906;52.278;6.808;2022-10-23T04:09:54;101258.75;;;12.25;88.40
68871;BME280;55906;52.278;6.808;2022-10-23T04:12:21;101246.34;;;12.21;88.62
68871;BME280;55906;52.278;6.808;2022-10-23T04:14:47;101241.97;;;12.21;88.36
68871;BME280;55906;52.278;6.808;2022-10-23T04:17:14;101241.97;;;12.21;88.62
68871;BME280;55906;52.278;6.808;2022-10-23T04:19:41;101241.91;;;12.20;88.12
68871;BME280;55906;52.278;6.808;2022-10-23T04:22:07;101244.56;;;12.20;88.27
68871;BME280;55906;52.278;6.808;2022-10-23T04:24:35;101237.47;;;12.17;88.62
68871;BME280;55906;52.278;6.808;2022-10-23T04:27:02;101234.81;;;12.17;88.44
68871;BME280;55906;52.278;6.808;2022-10-23T04:29:28;101237.50;;;12.18;88.23
68871;BME280;55906;52.278;6.808;2022-10-23T04:31:56;101241.88;;;12.18;88.50
68871;BME280;55906;52.278;6.808;2022-10-23T04:34:23;101234.84;;;12.18;88.54
68871;BME280;55906;52.278;6.808;2022-10-23T04:36:50;101234.00;;;12.20;88.90
68871;BME280;55906;52.278;6.808;2022-10-23T04:39:17;101240.22;;;12.22;88.36
68871;BME280;55906;52.278;6.808;2022-10-23T04:41:45;101234.09;;;12.23;88.66
68871;BME280;55906;52.278;6.808;2022-10-23T04:44:12;101229.69;;;12.23;88.80
68871;BME280;55906;52.278;6.808;2022-10-23T04:46:38;101229.72;;;12.25;88.89
68871;BME280;55906;52.278;6.808;2022-10-23T04:49:05;101232.41;;;12.26;88.41
68871;BME280;55906;52.278;6.808;2022-10-23T04:51:32;101227.19;;;12.28;88.75
68871;BME280;55906;52.278;6.808;2022-10-23T04:53:58;101220.06;;;12.25;89.00
68871;BME280;55906;52.278;6.808;2022-10-23T04:56:25;101207.78;;;12.26;88.80
68871;BME280;55906;52.278;6.808;2022-10-23T04:58:53;101223.69;;;12.29;89.18
68871;BME280;55906;52.278;6.808;2022-10-23T05:01:19;101222.78;;;12.28;88.82
68871;BME280;55906;52.278;6.808;2022-10-23T05:03:46;101218.41;;;12.29;89.13
68871;BME280;55906;52.278;6.808;2022-10-23T05:06:12;101213.13;;;12.29;89.10
68871;BME280;55906;52.278;6.808;2022-10-23T05:08:39;101212.25;;;12.28;88.97
68871;BME280;55906;52.278;6.808;2022-10-23T05:11:05;101216.59;;;12.26;89.11
68871;BME280;55906;52.278;6.808;2022-10-23T05:13:32;101218.31;;;12.26;88.94
68871;BME280;55906;52.278;6.808;2022-10-23T05:16:00;101202.50;;;12.26;89.23
68871;BME280;55906;52.278;6.808;2022-10-23T05:18:29;101203.34;;;12.25;89.19
68871;BME280;55906;52.278;6.808;2022-10-23T05:21:01;101204.22;;;12.24;88.91
68871;BME280;55906;52.278;6.808;2022-10-23T05:23:30;101200.66;;;12.22;88.58
68871;BME280;55906;52.278;6.808;2022-10-23T05:25:59;101202.38;;;12.21;88.74
68871;BME280;55906;52.278;6.808;2022-10-23T05:28:27;101197.13;;;12.21;88.96
68871;BME280;55906;52.278;6.808;2022-10-23T05:30:54;101194.47;;;12.21;88.74
68871;BME280;55906;52.278;6.808;2022-10-23T05:33:22;101199.75;;;12.21;88.88
68871;BME280;55906;52.278;6.808;2022-10-23T05:35:48;101199.75;;;12.21;88.99
68871;BME280;55906;52.278;6.808;2022-10-23T05:38:15;101191.84;;;12.21;88.60
68871;BME280;55906;52.278;6.808;2022-10-23T05:40:43;101183.03;;;12.21;89.03
68871;BME280;55906;52.278;6.808;2022-10-23T05:43:10;101176.88;;;12.20;88.62
68871;BME280;55906;52.278;6.808;2022-10-23T05:45:37;101176.84;;;12.18;88.56
68871;BME280;55906;52.278;6.808;2022-10-23T05:48:04;101174.16;;;12.17;89.04
68871;BME280;55906;52.278;6.808;2022-10-23T05:50:35;101173.31;;;12.18;88.96
68871;BME280;55906;52.278;6.808;2022-10-23T05:53:01;101176.78;;;12.17;89.05
68871;BME280;55906;52.278;6.808;2022-10-23T05:55:28;101179.47;;;12.18;88.74
68871;BME280;55906;52.278;6.808;2022-10-23T05:57:54;101168.91;;;12.18;89.09
68871;BME280;55906;52.278;6.808;2022-10-23T06:00:21;101171.56;;;12.18;88.96
68871;BME280;55906;52.278;6.808;2022-10-23T06:02:48;101168.06;;;12.20;88.97
68871;BME280;55906;52.278;6.808;2022-10-23T06:05:14;101166.31;;;12.20;88.85
68871;BME280;55906;52.278;6.808;2022-10-23T06:07:42;101166.34;;;12.22;89.31
68871;BME280;55906;52.278;6.808;2022-10-23T06:10:09;101166.34;;;12.22;89.04
68871;BME280;55906;52.278;6.808;2022-10-23T06:12:36;101171.66;;;12.23;89.93
68871;BME280;55906;52.278;6.808;2022-10-23T06:15:03;101162.00;;;12.24;88.92
68871;BME280;55906;52.278;6.808;2022-10-23T06:17:30;101172.56;;;12.24;89.20
68871;BME280;55906;52.278;6.808;2022-10-23T06:19:56;101166.38;;;12.23;88.89
68871;BME280;55906;52.278;6.808;2022-10-23T06:22:26;101180.50;;;12.25;89.20
68871;BME280;55906;52.278;6.808;2022-10-23T06:24:55;101180.53;;;12.27;89.32
68871;BME280;55906;52.278;6.808;2022-10-23T06:27:21;101179.69;;;12.28;88.82
68871;BME280;55906;52.278;6.808;2022-10-23T06:29:48;101182.41;;;12.31;89.05
68871;BME280;55906;52.278;6.808;2022-10-23T06:32:15;101185.09;;;12.34;88.84
68871;BME280;55906;52.278;6.808;2022-10-23T06:34:42;101171.06;;;12.35;88.67
68871;BME280;55906;52.278;6.808;2022-10-23T06:37:09;101168.50;;;12.38;88.72
68871;BME280;55906;52.278;6.808;2022-10-23T06:39:36;101174.66;;;12.38;88.88
68871;BME280;55906;52.278;6.808;2022-10-23T06:42:07;101171.19;;;12.41;88.73
68871;BME280;55906;52.278;6.808;2022-10-23T06:44:34;101167.72;;;12.42;88.91
68871;BME280;55906;52.278;6.808;2022-10-23T06:47:04;101169.41;;;12.40;88.47
68871;BME280;55906;52.278;6.808;2022-10-23T06:49:31;101169.50;;;12.43;88.66
68871;BME280;55906;52.278;6.808;2022-10-23T06:51:57;101169.56;;;12.46;89.01
68871;BME280;55906;52.278;6.808;2022-10-23T06:54:24;101151.91;;;12.43;89.02
68871;BME280;55906;52.278;6.808;2022-10-23T06:56:51;101154.63;;;12.46;88.99
68871;BME280;55906;52.278;6.808;2022-10-23T06:59:19;101157.38;;;12.51;88.90
68871;BME280;55906;52.278;6.808;2022-10-23T07:01:46;101158.25;;;12.52;88.58
68871;BME280;55906;52.278;6.808;2022-10-23T07:04:14;101160.97;;;12.55;88.41
68871;BME280;55906;52.278;6.808;2022-10-23T07:06:43;101162.78;;;12.57;88.78
68871;BME280;55906;52.278;6.808;2022-10-23T07:09:10;101155.84;;;12.62;88.58
68871;BME280;55906;52.278;6.808;2022-10-23T07:11:36;101145.28;;;12.62;88.74
68871;BME280;55906;52.278;6.808;2022-10-23T07:14:03;101133.03;;;12.64;88.60
68871;BME280;55906;52.278;6.808;2022-10-23T07:16:31;101142.03;;;12.74;88.40
68871;BME280;55906;52.278;6.808;2022-10-23T07:18:59;101150.91;;;12.77;88.63
68871;BME280;55906;52.278;6.808;2022-10-23T07:21:26;101139.59;;;12.83;88.41
68871;BME280;55906;52.278;6.808;2022-10-23T07:23:53;101145.81;;;12.87;88.62
68871;BME280;55906;52.278;6.808;2022-10-23T07:26:20;101143.28;;;12.91;88.34
68871;BME280;55906;52.278;6.808;2022-10-23T07:28:48;101139.88;;;12.97;88.06
68871;BME280;55906;52.278;6.808;2022-10-23T07:31:19;101143.56;;;13.03;88.24
68871;BME280;55906;52.278;6.808;2022-10-23T07:33:50;101136.66;;;13.10;88.15
68871;BME280;55906;52.278;6.808;2022-10-23T07:36:17;101133.19;;;13.14;87.83
68871;BME280;55906;52.278;6.808;2022-10-23T07:38:44;101141.34;;;13.23;87.89
68871;BME280;55906;52.278;6.808;2022-10-23T07:41:11;101130.78;;;13.23;87.86
68871;BME280;55906;52.278;6.808;2022-10-23T07:43:38;101118.56;;;13.30;87.56
68871;BME280;55906;52.278;6.808;2022-10-23T07:46:05;101116.94;;;13.36;87.36
68871;BME280;55906;52.278;6.808;2022-10-23T07:48:34;101117.03;;;13.42;87.39
68871;BME280;55906;52.278;6.808;2022-10-23T07:51:04;101121.56;;;13.50;87.46
68871;BME280;55906;52.278;6.808;2022-10-23T07:53:35;101107.53;;;13.52;87.28
68871;BME280;55906;52.278;6.808;2022-10-23T07:56:11;101111.22;;;13.62;87.24
68871;BME280;55906;52.278;6.808;2022-10-23T07:58:39;101106.91;;;13.67;86.92
68871;BME280;55906;52.278;6.808;2022-10-23T08:01:13;101107.00;;;13.73;86.84
68871;BME280;55906;52.278;6.808;2022-10-23T08:03:41;101116.78;;;13.78;86.51
68871;BME280;55906;52.278;6.808;2022-10-23T08:06:08;101108.97;;;13.86;86.62
68871;BME280;55906;52.278;6.808;2022-10-23T08:08:35;101108.22;;;13.93;86.27
68871;BME280;55906;52.278;6.808;2022-10-23T08:11:02;101103.94;;;14.03;86.21
68871;BME280;55906;52.278;6.808;2022-10-23T08:13:28;101103.19;;;14.10;85.98
68871;BME280;55906;52.278;6.808;2022-10-23T08:15:55;101107.63;;;14.13;85.95
68871;BME280;55906;52.278;6.808;2022-10-23T08:18:23;101104.25;;;14.23;85.90
68871;BME280;55906;52.278;6.808;2022-10-23T08:20:49;101098.19;;;14.30;85.52
68871;BME280;55906;52.278;6.808;2022-10-23T08:23:18;101106.28;;;14.39;85.25
68871;BME280;55906;52.278;6.808;2022-10-23T08:25:45;101098.44;;;14.44;85.27
68871;BME280;55906;52.278;6.808;2022-10-23T08:28:12;101095.00;;;14.49;85.06
68871;BME280;55906;52.278;6.808;2022-10-23T08:30:39;101087.16;;;14.58;84.93
68871;BME280;55906;52.278;6.808;2022-10-23T08:33:06;101093.44;;;14.65;84.75
68871;BME280;55906;52.278;6.808;2022-10-23T08:35:35;101085.56;;;14.71;84.59
68871;BME280;55906;52.278;6.808;2022-10-23T08:38:02;101082.09;;;14.77;84.27
68871;BME280;55906;52.278;6.808;2022-10-23T08:40:30;101089.25;;;14.85;84.20
68871;BME280;55906;52.278;6.808;2022-10-23T08:43:00;101087.53;;;14.89;84.03
68871;BME280;55906;52.278;6.808;2022-10-23T08:45:30;101086.75;;;14.96;83.91
68871;BME280;55906;52.278;6.808;2022-10-23T08:48:02;101083.25;;;14.98;83.56
68871;BME280;55906;52.278;6.808;2022-10-23T08:50:35;101075.38;;;15.06;83.59
68871;BME280;55906;52.278;6.808;2022-10-23T08:53:10;101070.09;;;15.09;83.17
68871;BME280;55906;52.278;6.808;2022-10-23T08:55:42;101071.03;;;15.14;82.89
68871;BME280;55906;52.278;6.808;2022-10-23T08:58:14;101073.78;;;15.22;82.57
68871;BME280;55906;52.278;6.808;2022-10-23T09:00:47;101065.84;;;15.23;82.57
68871;BME280;55906;52.278;6.808;2022-10-23T09:03:15;101054.38;;;15.27;82.55
68871;BME280;55906;52.278;6.808;2022-10-23T09:05:53;101065.03;;;15.33;82.20
68871;BME280;55906;52.278;6.808;2022-10-23T09:08:33;101060.69;;;15.38;82.21
68871;BME280;55906;52.278;6.808;2022-10-23T09:11:10;101047.44;;;15.40;81.92
68871;BME280;55906;52.278;6.808;2022-10-23T09:13:54;101044.84;;;15.48;81.90
68871;BME280;55906;52.278;6.808;2022-10-23T09:16:37;101037.81;;;15.53;81.79
68871;BME280;55906;52.278;6.808;2022-10-23T09:19:15;101023.81;;;15.61;81.50
68871;BME280;55906;52.278;6.808;2022-10-23T09:21:45;101027.38;;;15.66;81.76
68871;BME280;55906;52.278;6.808;2022-10-23T09:24:15;101019.50;;;15.76;81.26
68871;BME280;55906;52.278;6.808;2022-10-23T09:26:45;101013.34;;;15.83;81.28
68871;BME280;55906;52.278;6.808;2022-10-23T09:29:20;101026.69;;;15.92;81.00
68871;BME280;55906;52.278;6.808;2022-10-23T09:31:48;101030.22;;;15.92;80.62
68871;BME280;55906;52.278;6.808;2022-10-23T09:34:19;101024.97;;;16.00;80.63
68871;BME280;55906;52.278;6.808;2022-10-23T09:36:51;101010.88;;;16.12;80.07
68871;BME280;55906;52.278;6.808;2022-10-23T09:39:22;101004.72;;;16.22;79.95
68871;BME280;55906;52.278;6.808;2022-10-23T09:41:50;101008.31;;;16.30;79.82
68871;BME280;55906;52.278;6.808;2022-10-23T09:44:20;101007.47;;;16.40;79.56
68871;BME280;55906;52.278;6.808;2022-10-23T09:46:49;100995.13;;;16.50;79.49
68871;BME280;55906;52.278;6.808;2022-10-23T09:49:19;100993.38;;;16.62;79.46
68871;BME280;55906;52.278;6.808;2022-10-23T09:51:53;100996.13;;;16.76;78.81
68871;BME280;55906;52.278;6.808;2022-10-23T09:54:21;100998.78;;;16.84;78.56
68871;BME280;55906;52.278;6.808;2022-10-23T09:56:50;100989.09;;;16.92;78.41
68871;BME280;55906;52.278;6.808;2022-10-23T09:59:22;100984.69;;;17.03;77.84
68871;BME280;55906;52.278;6.808;2022-10-23T10:01:52;100994.44;;;17.15;77.42
68871;BME280;55906;52.278;6.808;2022-10-23T10:04:30;100992.69;;;17.23;75.69
68871;BME280;55906;52.278;6.808;2022-10-23T10:06:57;100987.38;;;17.27;76.70
68871;BME280;55906;52.278;6.808;2022-10-23T10:09:26;100984.69;;;17.29;75.97
68871;BME280;55906;52.278;6.808;2022-10-23T10:11:55;100994.44;;;17.36;75.93
68871;BME280;55906;52.278;6.808;2022-10-23T10:14:38;100982.94;;;17.39;75.19
68871;BME280;55906;52.278;6.808;2022-10-23T10:17:16;100979.38;;;17.43;75.38
68871;BME280;55906;52.278;6.808;2022-10-23T10:20:04;100979.38;;;17.49;75.55
68871;BME280;55906;52.278;6.808;2022-10-23T10:22:39;100983.81;;;17.57;75.26
68871;BME280;55906;52.278;6.808;2022-10-23T10:25:12;100976.72;;;17.55;74.88
68871;BME280;55906;52.278;6.808;2022-10-23T10:27:51;100972.28;;;17.60;74.87
68871;BME280;55906;52.278;6.808;2022-10-23T10:30:23;100975.81;;;17.56;74.86
68871;BME280;55906;52.278;6.808;2022-10-23T10:32:53;100968.72;;;17.52;74.63
68871;BME280;55906;52.278;6.808;2022-10-23T10:35:36;100966.97;;;17.49;74.39
68871;BME280;55906;52.278;6.808;2022-10-23T10:44:37;100921.75;;;17.36;74.95
68871;BME280;55906;52.278;6.808;2022-10-23T10:47:13;100924.41;;;17.40;74.89
68871;BME280;55906;52.278;6.808;2022-10-23T10:49:45;100929.72;;;17.43;74.84
68871;BME280;55906;52.278;6.808;2022-10-23T10:52:18;100935.03;;;17.45;75.15
68871;BME280;55906;52.278;6.808;2022-10-23T10:54:55;100938.59;;;17.44;74.69
68871;BME280;55906;52.278;6.808;2022-10-23T10:57:31;100929.72;;;17.42;74.61
68871;BME280;55906;52.278;6.808;2022-10-23T11:00:02;100936.81;;;17.46;74.44
68871;BME280;55906;52.278;6.808;2022-10-23T11:02:36;100923.50;;;17.47;74.23
68871;BME280;55906;52.278;6.808;2022-10-23T11:05:13;100907.53;;;17.55;74.20
68871;BME280;55906;52.278;6.808;2022-10-23T11:07:47;100913.75;;;17.57;74.23
68871;BME280;55906;52.278;6.808;2022-10-23T11:10:17;100903.09;;;17.60;73.76
68871;BME280;55906;52.278;6.808;2022-10-23T11:12:45;100896.00;;;17.65;73.21
68871;BME280;55906;52.278;6.808;2022-10-23T11:15:18;100887.13;;;17.75;73.41
68871;BME280;55906;52.278;6.808;2022-10-23T11:17:47;100882.69;;;17.74;73.10
68871;BME280;55906;52.278;6.808;2022-10-23T11:20:30;100873.81;;;17.78;73.12
68871;BME280;55906;52.278;6.808;2022-10-23T11:23:21;100869.34;;;17.80;73.19
68871;BME280;55906;52.278;6.808;2022-10-23T11:26:07;100856.94;;;17.82;73.03
68871;BME280;55906;52.278;6.808;2022-10-23T11:28:50;100849.81;;;17.84;73.22
68871;BME280;55906;52.278;6.808;2022-10-23T11:31:29;100835.66;;;17.81;73.01
68871;BME280;55906;52.278;6.808;2022-10-23T11:34:11;100831.19;;;17.86;72.49
68871;BME280;55906;52.278;6.808;2022-10-23T11:36:45;100821.44;;;17.86;72.89
68871;BME280;55906;52.278;6.808;2022-10-23T11:39:19;100819.63;;;17.90;72.63
68871;BME280;55906;52.278;6.808;2022-10-23T11:41:55;100803.66;;;17.88;72.16
68871;BME280;55906;52.278;6.808;2022-10-23T11:44:25;100807.19;;;17.94;72.64
68871;BME280;55906;52.278;6.808;2022-10-23T11:47:01;100796.53;;;17.94;72.05
68871;BME280;55906;52.278;6.808;2022-10-23T11:49:28;100794.75;;;17.94;72.37
68871;BME280;55906;52.278;6.808;2022-10-23T11:52:01;100794.78;;;17.92;72.28
68871;BME280;55906;52.278;6.808;2022-10-23T11:54:28;100793.00;;;17.95;72.22
68871;BME280;55906;52.278;6.808;2022-10-23T11:57:08;100792.06;;;18.03;71.67
68871;BME280;55906;52.278;6.808;2022-10-23T11:59:49;100785.81;;;18.07;71.92
68871;BME280;55906;52.278;6.808;2022-10-23T12:02:25;100787.50;;;18.19;71.54
68871;BME280;55906;52.278;6.808;2022-10-23T12:04:53;100785.72;;;18.26;71.14
68871;BME280;55906;52.278;6.808;2022-10-23T12:07:23;100774.03;;;18.45;70.87
68871;BME280;55906;52.278;6.808;2022-10-23T12:09:54;100772.16;;;18.56;70.46
68871;BME280;55906;52.278;6.808;2022-10-23T12:12:30;100767.66;;;18.69;70.46
68871;BME280;55906;52.278;6.808;2022-10-23T12:15:17;100754.19;;;18.81;70.32
68871;BME280;55906;52.278;6.808;2022-10-23T12:17:47;100739.06;;;18.83;70.41
68871;BME280;55906;52.278;6.808;2022-10-23T12:20:23;100746.94;;;18.95;69.42
68871;BME280;55906;52.278;6.808;2022-10-23T12:23:01;100742.44;;;19.00;69.34
68871;BME280;55906;52.278;6.808;2022-10-23T12:25:38;100728.34;;;18.89;69.25
68871;BME280;55906;52.278;6.808;2022-10-23T12:28:18;100723.00;;;18.91;69.49
68871;BME280;55906;52.278;6.808;2022-10-23T12:30:58;100715.09;;;18.83;69.30
68871;BME280;55906;52.278;6.808;2022-10-23T12:33:34;100707.13;;;18.80;69.14
68871;BME280;55906;52.278;6.808;2022-10-23T12:36:15;100691.03;;;18.88;68.96
68871;BME280;55906;52.278;6.808;2022-10-23T12:38:47;100675.84;;;18.96;68.87
68871;BME280;55906;52.278;6.808;2022-10-23T12:41:16;100695.28;;;19.05;68.62
68871;BME280;55906;52.278;6.808;2022-10-23T12:43:50;100690.66;;;19.19;68.26
68871;BME280;55906;52.278;6.808;2022-10-23T12:46:28;100688.66;;;19.38;67.43
68871;BME280;55906;52.278;6.808;2022-10-23T12:48:59;100681.22;;;19.66;67.55
68871;BME280;55906;52.278;6.808;2022-10-23T12:51:28;100666.63;;;19.89;66.83
68871;BME280;55906;52.278;6.808;2022-10-23T12:53:55;100668.28;;;19.96;65.97
68871;BME280;55906;52.278;6.808;2022-10-23T12:56:23;100676.06;;;20.11;66.43
68871;BME280;55906;52.278;6.808;2022-10-23T12:58:52;100644.72;;;20.21;65.83
68871;BME280;55906;52.278;6.808;2022-10-23T13:01:24;100635.56;;;20.35;66.07
68871;BME280;55906;52.278;6.808;2022-10-23T13:03:55;100629.16;;;20.47;66.07
68871;BME280;55906;52.278;6.808;2022-10-23T13:06:25;100642.38;;;20.55;64.56
68871;BME280;55906;52.278;6.808;2022-10-23T13:08:52;100641.56;;;20.50;63.69
68871;BME280;55906;52.278;6.808;2022-10-23T13:11:20;100633.59;;;20.47;64.54
68871;BME280;55906;52.278;6.808;2022-10-23T13:13:47;100631.75;;;20.50;63.56